createdAt,value
2023-03-03T00:02:26.537Z,73.42
2023-03-03T00:07:27.919Z,73.06
2023-03-03T00:12:30.151Z,74.42
2023-03-03T00:17:32.056Z,74.42
2023-03-03T00:22:37.171Z,74.45
2023-03-03T00:27:38.662Z,74.13
2023-03-03T00:32:45.279Z,74.10
2023-03-03T00:37:46.594Z,74.38
2023-03-03T00:42:55.367Z,74.20
2023-03-03T00:47:57.251Z,74.69
2023-03-03T00:53:00.594Z,74.52
2023-03-03T00:58:02.117Z,74.83
2023-03-03T01:03:07.924Z,74.51
2023-03-03T01:08:09.452Z,75.47
2023-03-03T01:13:10.961Z,75.80
2023-03-03T01:18:12.775Z,75.74
2023-03-03T01:23:14.157Z,76.04
2023-03-03T01:28:15.579Z,76.21
2023-03-03T01:33:17.284Z,75.75
2023-03-03T01:38:18.564Z,76.00
2023-03-03T01:43:20.099Z,76.71
2023-03-03T01:48:27.599Z,76.12
2023-03-03T01:53:33.220Z,75.64
2023-03-03T01:58:45.542Z,76.37
2023-03-03T02:03:47.716Z,76.04
2023-03-03T02:08:55.754Z,76.73
2023-03-03T02:13:57.075Z,76.60
2023-03-03T02:18:58.547Z,76.99
2023-03-03T02:24:09.030Z,77.39
2023-03-03T02:29:10.851Z,77.36
2023-03-03T02:34:12.200Z,77.18
2023-03-03T02:39:18.114Z,77.14
2023-03-03T02:44:24.023Z,77.56
2023-03-03T02:49:26.852Z,77.50
2023-03-03T02:54:29.088Z,78.36
2023-03-03T02:59:30.760Z,78.55
2023-03-03T03:04:32.220Z,78.41
2023-03-03T03:09:33.687Z,78.46
2023-03-03T03:14:35.284Z,78.33
2023-03-03T03:19:36.632Z,78.69
2023-03-03T03:24:38.147Z,78.36
2023-03-03T03:29:39.536Z,78.08
2023-03-03T03:34:40.950Z,79.93
2023-03-03T03:39:42.430Z,79.34
2023-03-03T03:44:43.772Z,79.83
2023-03-03T03:49:45.095Z,79.87
2023-03-03T03:54:46.429Z,80.34
2023-03-03T03:59:49.292Z,79.85
2023-03-03T04:04:50.661Z,80.34
2023-03-03T04:09:52.127Z,80.18
2023-03-03T04:14:53.542Z,80.65
2023-03-03T04:19:54.874Z,80.60
2023-03-03T04:24:56.228Z,80.88
2023-03-03T04:29:57.613Z,80.53
2023-03-03T04:35:07.606Z,80.42
2023-03-03T04:40:10.033Z,80.55
2023-03-03T04:45:11.504Z,80.48
2023-03-03T04:50:12.935Z,80.92
2023-03-03T04:55:14.409Z,81.23
2023-03-03T05:00:15.976Z,81.51
2023-03-03T05:05:17.287Z,80.85
2023-03-03T05:10:19.204Z,81.31
2023-03-03T05:15:21.013Z,80.97
2023-03-03T05:20:22.872Z,80.95
2023-03-03T05:25:24.226Z,81.72
2023-03-03T05:30:25.638Z,80.92
2023-03-03T05:35:27.300Z,81.29
2023-03-03T05:40:28.668Z,81.12
2023-03-03T05:45:30.140Z,81.29
2023-03-03T05:50:31.962Z,82.35
2023-03-03T05:55:33.391Z,81.38
2023-03-03T06:00:35.048Z,81.48
2023-03-03T06:05:36.655Z,81.90
2023-03-03T06:10:38.107Z,81.88
2023-03-03T06:15:39.524Z,82.38
2023-03-03T06:20:41.069Z,83.31
2023-03-03T06:25:42.480Z,82.89
2023-03-03T06:30:43.820Z,82.79
2023-03-03T06:35:48.889Z,83.19
2023-03-03T06:40:50.422Z,83.36
2023-03-03T06:45:51.859Z,82.38
2023-03-03T06:50:53.294Z,82.15
2023-03-03T06:55:56.736Z,83.41
2023-03-03T07:00:58.983Z,83.25
2023-03-03T07:06:00.776Z,83.08
2023-03-03T07:11:05.892Z,85.30
2023-03-03T07:16:11.176Z,85.46
2023-03-03T07:21:12.572Z,85.67
2023-03-03T07:26:40.083Z,85.87
2023-03-03T07:31:44.562Z,87.85
2023-03-03T07:36:47.452Z,87.60
2023-03-03T07:41:49.004Z,87.59
2023-03-03T07:46:50.336Z,88.07
2023-03-03T07:51:56.006Z,88.10
2023-03-03T07:57:09.756Z,89.57
2023-03-03T08:02:29.837Z,88.92
2023-03-03T08:07:31.436Z,89.12
2023-03-03T08:12:32.801Z,88.82
2023-03-03T08:17:36.615Z,88.71
2023-03-03T08:22:38.055Z,88.44
2023-03-03T08:27:39.347Z,87.91
2023-03-03T08:32:40.737Z,87.67
2023-03-03T08:37:42.161Z,88.14
2023-03-03T08:42:43.509Z,87.74
2023-03-03T08:47:44.880Z,87.53
2023-03-03T08:52:46.519Z,88.52
2023-03-03T08:57:47.940Z,86.41
2023-03-03T09:02:49.806Z,86.99
2023-03-03T09:07:51.758Z,87.53
2023-03-03T09:12:53.855Z,85.84
2023-03-03T09:17:58.184Z,86.96
2023-03-03T09:23:16.849Z,85.92
2023-03-03T09:28:28.668Z,86.30
2023-03-03T09:33:30.001Z,85.61
2023-03-03T09:38:33.230Z,85.31
2023-03-03T09:43:34.580Z,85.01
2023-03-03T09:48:53.200Z,84.67
2023-03-03T09:54:08.543Z,86.08
2023-03-03T09:59:32.197Z,85.64
2023-03-03T10:04:52.417Z,84.84
2023-03-03T10:09:56.802Z,84.73
2023-03-03T10:14:58.192Z,84.18
2023-03-03T10:20:11.717Z,82.07
2023-03-03T10:25:13.054Z,83.07
2023-03-03T10:30:38.978Z,82.87
2023-03-03T10:36:07.513Z,82.33
2023-03-03T10:41:27.793Z,81.35
2023-03-03T10:46:48.266Z,81.36
2023-03-03T10:52:03.414Z,81.45
2023-03-03T10:57:18.842Z,81.29
2023-03-03T11:02:38.562Z,80.22
2023-03-03T11:07:42.966Z,79.66
2023-03-03T11:12:55.858Z,79.50
2023-03-03T11:18:00.315Z,80.02
2023-03-03T11:23:07.993Z,79.03
2023-03-03T11:28:18.288Z,79.17
2023-03-03T11:33:27.270Z,79.39
2023-03-03T11:38:31.655Z,78.20
2023-03-03T11:43:54.146Z,79.23
2023-03-03T11:49:06.631Z,79.11
2023-03-03T11:54:23.967Z,77.20
2023-03-03T11:59:34.556Z,78.10
2023-03-03T12:04:38.978Z,79.44
2023-03-03T12:09:43.409Z,78.72
2023-03-03T12:15:01.152Z,77.96
2023-03-03T12:20:20.500Z,78.80
2023-03-03T12:25:27.733Z,78.03
2023-03-03T12:30:40.228Z,77.68
2023-03-03T12:36:00.235Z,77.58
2023-03-03T12:41:16.255Z,77.98
2023-03-03T12:46:17.715Z,77.82
2023-03-03T12:51:19.088Z,77.78
2023-03-03T12:56:30.392Z,77.82
2023-03-03T13:01:40.651Z,78.36
2023-03-03T13:06:52.859Z,77.82
2023-03-03T13:12:10.272Z,78.57
2023-03-03T13:17:14.314Z,77.04
2023-03-03T13:22:22.764Z,77.96
2023-03-03T13:27:26.701Z,78.75
2023-03-03T13:32:46.654Z,77.08
2023-03-03T13:37:49.879Z,77.30
2023-03-03T13:42:57.275Z,77.47
2023-03-03T13:48:17.421Z,78.46
2023-03-03T13:53:21.813Z,78.04
2023-03-03T13:58:46.818Z,78.54
2023-03-03T14:04:00.993Z,77.94
2023-03-03T14:09:15.010Z,78.19
2023-03-03T14:14:19.495Z,78.58
2023-03-03T14:19:41.063Z,77.62
2023-03-03T14:25:14.921Z,78.54
2023-03-03T14:30:22.226Z,77.69
2023-03-03T14:35:23.674Z,76.31
2023-03-03T14:40:30.763Z,77.96
2023-03-03T14:45:39.077Z,77.97
2023-03-03T14:50:41.709Z,78.82
2023-03-03T14:55:44.961Z,77.33
2023-03-03T15:00:46.403Z,78.01
2023-03-03T15:05:52.066Z,79.02
2023-03-03T15:10:53.484Z,78.97
2023-03-03T15:15:57.925Z,78.33
2023-03-03T15:21:04.953Z,78.91
2023-03-03T15:26:12.590Z,78.96
2023-03-03T15:31:29.344Z,78.03
2023-03-03T15:36:42.702Z,79.21
2023-03-03T15:41:47.751Z,79.04
2023-03-03T15:47:08.407Z,80.40
2023-03-03T15:52:09.751Z,80.05
2023-03-03T15:57:11.261Z,81.43
2023-03-03T16:02:20.220Z,79.71
2023-03-03T16:07:39.834Z,81.01
2023-03-03T16:12:52.028Z,81.14
2023-03-03T16:18:12.190Z,81.07
2023-03-03T16:23:17.499Z,80.16
2023-03-03T16:28:39.194Z,80.12
2023-03-03T16:33:40.478Z,80.11
2023-03-03T16:38:43.861Z,79.80
2023-03-03T16:44:04.190Z,79.24
2023-03-03T16:49:25.754Z,79.02
2023-03-03T16:54:39.041Z,79.10
2023-03-03T16:59:46.355Z,78.69
2023-03-03T17:04:55.983Z,79.47
2023-03-03T17:10:05.689Z,79.51
2023-03-03T17:15:15.299Z,79.49
2023-03-03T17:20:26.613Z,79.59
2023-03-03T17:25:40.049Z,80.05
2023-03-03T17:30:44.226Z,80.27
2023-03-03T17:35:56.989Z,80.37
2023-03-03T17:41:10.762Z,79.88
2023-03-03T17:46:24.099Z,80.48
2023-03-03T17:51:41.608Z,80.61
2023-03-03T17:56:52.687Z,80.46
2023-03-03T18:02:12.586Z,80.88
2023-03-03T18:07:20.118Z,81.30
2023-03-03T18:12:30.539Z,81.66
2023-03-03T18:17:34.837Z,82.24
2023-03-03T18:22:41.920Z,82.27
2023-03-03T18:27:44.390Z,82.31
2023-03-03T18:32:57.842Z,82.25
2023-03-03T18:38:23.251Z,82.61
2023-03-03T18:43:39.617Z,83.20
2023-03-03T18:48:52.995Z,83.62
2023-03-03T18:54:20.446Z,83.87
2023-03-03T18:59:31.253Z,82.97
2023-03-03T19:04:35.588Z,83.59
2023-03-03T19:09:51.164Z,83.38
2023-03-03T19:14:52.552Z,83.58
2023-03-03T19:20:09.103Z,84.13
2023-03-03T19:25:26.900Z,84.11
2023-03-03T19:30:47.024Z,84.13
2023-03-03T19:35:59.466Z,84.13
2023-03-03T19:41:14.134Z,84.75
2023-03-03T19:46:34.330Z,84.30
2023-03-03T19:51:44.545Z,84.55
2023-03-03T19:56:51.034Z,85.42
2023-03-03T20:02:11.096Z,86.51
2023-03-03T20:07:21.348Z,87.10
2023-03-03T20:12:31.774Z,86.80
2023-03-03T20:17:39.387Z,86.46
2023-03-03T20:22:40.681Z,87.73
2023-03-03T20:27:42.096Z,87.44
2023-03-03T20:32:43.448Z,88.85
2023-03-03T20:37:57.038Z,88.97
2023-03-03T20:43:14.272Z,89.27
2023-03-03T20:48:34.488Z,90.11
2023-03-03T20:53:47.744Z,90.62
2023-03-03T20:59:07.357Z,91.37
2023-03-03T21:04:23.270Z,90.47
2023-03-03T21:09:30.867Z,91.04
2023-03-03T21:14:35.713Z,91.17
2023-03-03T21:19:37.120Z,91.46
2023-03-03T21:24:49.139Z,91.65
2023-03-03T21:30:01.824Z,91.24
2023-03-03T21:35:04.820Z,91.64
2023-03-03T21:40:15.431Z,91.38
2023-03-03T21:45:16.980Z,91.23
2023-03-03T21:50:18.499Z,92.83
2023-03-03T21:55:19.892Z,90.48
2023-03-03T22:00:21.360Z,92.17
2023-03-03T22:05:22.682Z,91.60
2023-03-03T22:10:23.997Z,89.55
2023-03-03T22:15:25.312Z,91.42
2023-03-03T22:20:26.624Z,91.21
2023-03-03T22:25:28.062Z,91.90
2023-03-03T22:30:29.410Z,91.08
2023-03-03T22:35:31.095Z,91.38
2023-03-03T22:40:32.599Z,90.46
2023-03-03T22:45:34.088Z,91.56
2023-03-03T22:50:35.695Z,91.89
2023-03-03T22:55:37.052Z,91.93
2023-03-03T23:00:38.548Z,91.71
2023-03-03T23:05:39.994Z,91.37
2023-03-03T23:10:41.496Z,92.02
2023-03-03T23:15:43.037Z,92.32
2023-03-03T23:20:44.478Z,92.36
2023-03-03T23:25:46.030Z,91.22
2023-03-03T23:30:47.362Z,92.79
2023-03-03T23:35:48.852Z,91.79
2023-03-03T23:40:50.241Z,92.14
2023-03-03T23:45:51.735Z,91.95
2023-03-03T23:50:53.213Z,91.96
2023-03-03T23:55:54.540Z,92.00
